createdAt,value
2022-12-04T00:02:12.467Z,-1.25
2022-12-04T00:08:14.865Z,-1.40
2022-12-04T02:02:17.427Z,-1.32
2022-12-04T02:04:56.963Z,-1.33
2022-12-04T02:07:33.267Z,-1.38
2022-12-04T02:14:09.919Z,-1.45
2022-12-04T02:17:16.539Z,-1.49
2022-12-04T02:20:00.176Z,-1.44
2022-12-04T02:30:49.490Z,-1.33
2022-12-04T02:33:30.416Z,-1.41
2022-12-04T02:36:20.730Z,-1.32
2022-12-04T02:47:01.202Z,-1.38
2022-12-04T02:50:05.892Z,-1.40
2022-12-04T02:53:25.337Z,-1.30
2022-12-04T03:03:07.830Z,-1.16
2022-12-04T03:06:18.940Z,-1.12
2022-12-04T03:12:24.937Z,-1.15
2022-12-04T03:19:38.166Z,-1.11
2022-12-04T03:47:22.438Z,-1.31
2022-12-04T03:53:53.232Z,-1.30
2022-12-04T04:00:57.647Z,-1.35
2022-12-04T04:03:46.549Z,-1.31
2022-12-04T04:14:42.488Z,-1.40
2022-12-04T04:21:19.910Z,-1.25
2022-12-04T04:24:42.478Z,-1.28
2022-12-04T04:27:52.224Z,-1.34
2022-12-04T04:34:19.002Z,-1.43
2022-12-04T04:37:17.707Z,-1.47
2022-12-04T04:44:07.995Z,-1.50
2022-12-04T04:48:05.952Z,-1.53
2022-12-04T04:57:16.593Z,-1.43
2022-12-04T05:00:42.796Z,-1.33
2022-12-04T05:03:12.428Z,-1.30
2022-12-04T05:05:51.227Z,-1.21
2022-12-04T05:09:05.846Z,-1.13
2022-12-04T05:12:42.087Z,-1.16
2022-12-04T05:15:19.153Z,-1.19
2022-12-04T05:19:20.289Z,-1.21
2022-12-04T05:22:51.419Z,-1.20
2022-12-04T05:25:40.433Z,-1.22
2022-12-04T05:29:14.392Z,-1.24
2022-12-04T05:32:06.416Z,-1.30
2022-12-04T05:37:48.334Z,-1.25
2022-12-04T05:47:16.276Z,-1.25
2022-12-04T05:50:12.730Z,-1.16
2022-12-04T05:53:06.416Z,-1.08
2022-12-04T05:55:55.585Z,-1.05
2022-12-04T05:58:35.659Z,-0.97
2022-12-04T06:01:35.227Z,-0.90
2022-12-04T06:04:08.539Z,-0.92
2022-12-04T06:06:39.293Z,-0.90
2022-12-04T06:09:10.473Z,-0.84
2022-12-04T06:12:09.549Z,-0.84
2022-12-04T06:14:42.158Z,-0.81
2022-12-04T06:17:18.082Z,-0.82
2022-12-04T06:20:12.950Z,-0.83
2022-12-04T06:23:42.236Z,-1.01
2022-12-04T06:30:02.088Z,-0.89
2022-12-04T06:32:35.591Z,-0.81
2022-12-04T06:35:02.403Z,-0.47
2022-12-04T06:37:29.429Z,-0.30
2022-12-04T06:39:56.677Z,-0.36
2022-12-04T06:52:34.514Z,-0.74
2022-12-04T06:55:01.292Z,-0.67
2022-12-04T06:57:27.990Z,-0.69
2022-12-04T06:59:54.999Z,-0.63
2022-12-04T07:02:22.169Z,-0.66
2022-12-04T07:04:48.901Z,-0.63
2022-12-04T07:07:15.900Z,-0.64
2022-12-04T07:09:42.573Z,-0.59
2022-12-04T07:12:09.271Z,-0.58
2022-12-04T07:14:37.187Z,-0.49
2022-12-04T07:17:03.936Z,-0.48
2022-12-04T07:19:30.716Z,-0.49
2022-12-04T07:21:57.427Z,-0.49
2022-12-04T07:24:24.103Z,-0.51
2022-12-04T07:26:53.302Z,-0.46
2022-12-04T07:29:20.004Z,-0.49
2022-12-04T07:31:46.759Z,-0.49
2022-12-04T07:34:13.539Z,-0.55
2022-12-04T07:36:40.898Z,-0.62
2022-12-04T07:39:07.708Z,-0.65
2022-12-04T07:41:35.204Z,-0.73
2022-12-04T07:44:06.584Z,-0.76
2022-12-04T07:46:33.402Z,-0.69
2022-12-04T07:49:00.235Z,-0.76
2022-12-04T07:51:29.360Z,-0.80
2022-12-04T07:54:02.732Z,-0.79
2022-12-04T07:56:29.848Z,-0.73
2022-12-04T07:58:56.533Z,-0.74
2022-12-04T08:01:24.129Z,-0.71
2022-12-04T08:03:53.156Z,-0.71
2022-12-04T08:06:21.388Z,-0.67
2022-12-04T08:08:48.678Z,-0.65
2022-12-04T08:11:17.782Z,-0.63
2022-12-04T08:13:47.502Z,-0.61
2022-12-04T08:16:15.331Z,-0.71
2022-12-04T08:18:46.822Z,-0.72
2022-12-04T08:21:16.562Z,-0.72
2022-12-04T08:23:44.818Z,-0.67
2022-12-04T08:26:12.638Z,-0.73
2022-12-04T08:28:39.997Z,-0.74
2022-12-04T08:31:13.452Z,-0.72
2022-12-04T08:33:42.801Z,-0.69
2022-12-04T08:36:11.468Z,-0.74
2022-12-04T08:38:38.744Z,-0.71
2022-12-04T08:41:07.869Z,-0.62
2022-12-04T08:43:34.779Z,-0.58
2022-12-04T08:46:03.942Z,-0.54
2022-12-04T08:48:31.719Z,-0.60
2022-12-04T08:50:58.833Z,-0.64
2022-12-04T08:53:25.650Z,-0.61
2022-12-04T08:55:52.727Z,-0.54
2022-12-04T08:58:20.267Z,-0.51
2022-12-04T09:00:47.805Z,-0.51
2022-12-04T09:03:19.256Z,-0.62
2022-12-04T09:05:46.370Z,-0.58
2022-12-04T09:08:14.688Z,-0.60
2022-12-04T09:10:42.438Z,-0.63
2022-12-04T09:13:09.691Z,-0.65
2022-12-04T09:15:39.476Z,-0.68
2022-12-04T09:18:07.263Z,-0.64
2022-12-04T09:20:34.217Z,-0.62
2022-12-04T09:23:05.183Z,-0.65
2022-12-04T09:25:36.025Z,-0.66
2022-12-04T09:28:02.884Z,-0.61
2022-12-04T09:30:29.635Z,-0.58
2022-12-04T09:32:56.362Z,-0.61
2022-12-04T09:35:23.183Z,-0.59
2022-12-04T09:37:49.846Z,-0.62
2022-12-04T09:40:37.441Z,-0.57
2022-12-04T09:43:36.223Z,-0.49
2022-12-04T09:46:09.878Z,-0.48
2022-12-04T09:48:39.438Z,-0.43
2022-12-04T09:51:07.112Z,-0.46
2022-12-04T09:53:48.125Z,-0.45
2022-12-04T09:56:20.000Z,-0.40
2022-12-04T09:58:53.856Z,-0.42
2022-12-04T10:01:47.399Z,-0.40
2022-12-04T10:04:15.003Z,-0.49
2022-12-04T10:07:05.234Z,-0.45
2022-12-04T10:09:57.362Z,-0.43
2022-12-04T10:12:30.801Z,-0.36
2022-12-04T10:15:08.903Z,-0.42
2022-12-04T10:17:47.798Z,-0.44
2022-12-04T10:20:45.288Z,-0.47
2022-12-04T10:23:29.966Z,-0.49
2022-12-04T10:25:57.640Z,-0.51
2022-12-04T10:28:39.480Z,-0.47
2022-12-04T10:31:10.208Z,-0.43
2022-12-04T10:33:40.089Z,-0.39
2022-12-04T10:36:11.528Z,-0.37
2022-12-04T10:38:47.197Z,-0.29
2022-12-04T10:41:26.161Z,-0.25
2022-12-04T10:43:52.866Z,-0.34
2022-12-04T10:46:25.819Z,-0.35
2022-12-04T10:49:03.796Z,-0.29
2022-12-04T10:51:39.676Z,-0.25
2022-12-04T10:54:18.821Z,-0.28
2022-12-04T10:56:54.688Z,-0.31
2022-12-04T10:59:22.024Z,-0.35
2022-12-04T11:01:49.552Z,-0.36
2022-12-04T11:04:21.423Z,-0.39
2022-12-04T11:06:50.270Z,-0.38
2022-12-04T11:09:22.887Z,-0.38
2022-12-04T11:11:50.051Z,-0.37
2022-12-04T11:14:19.781Z,-0.37
2022-12-04T11:17:00.558Z,-0.38
2022-12-04T11:19:28.575Z,-0.39
2022-12-04T11:21:58.437Z,-0.39
2022-12-04T11:24:33.163Z,-0.40
2022-12-04T11:27:00.358Z,-0.40
2022-12-04T11:29:36.907Z,-0.45
2022-12-04T11:32:07.750Z,-0.43
2022-12-04T11:34:38.110Z,-0.42
2022-12-04T11:37:06.044Z,-0.43
2022-12-04T11:39:39.214Z,-0.39
2022-12-04T11:42:17.931Z,-0.43
2022-12-04T11:44:56.599Z,-0.34
2022-12-04T11:47:28.680Z,-0.34
2022-12-04T11:50:21.144Z,-0.30
2022-12-04T11:52:56.860Z,-0.24
2022-12-04T11:55:51.481Z,-0.23
2022-12-04T11:58:24.162Z,-0.21
2022-12-04T12:01:11.341Z,-0.23
2022-12-04T12:03:48.511Z,-0.24
2022-12-04T12:06:27.348Z,-0.18
2022-12-04T12:09:11.087Z,-0.18
2022-12-04T12:11:42.794Z,-0.14
2022-12-04T12:14:28.412Z,-0.15
2022-12-04T12:16:57.725Z,-0.19
2022-12-04T12:19:49.056Z,-0.24
2022-12-04T12:22:34.559Z,-0.32
2022-12-04T12:25:33.784Z,-0.32
2022-12-04T12:28:13.375Z,-0.35
2022-12-04T12:31:06.513Z,-0.38
2022-12-04T12:34:00.271Z,-0.44
2022-12-04T12:36:31.659Z,-0.43
2022-12-04T12:39:01.458Z,-0.42
2022-12-04T12:41:30.471Z,-0.37
2022-12-04T12:44:02.862Z,-0.32
2022-12-04T12:46:37.693Z,-0.28
2022-12-04T12:49:14.048Z,-0.32
2022-12-04T12:51:55.365Z,-0.15
2022-12-04T12:54:34.128Z,0.16
2022-12-04T12:57:22.685Z,0.07
2022-12-04T13:00:07.499Z,-0.11
2022-12-04T13:02:39.536Z,-0.15
2022-12-04T13:05:09.790Z,-0.14
2022-12-04T13:07:49.064Z,0.34
2022-12-04T13:10:30.331Z,0.09
2022-12-04T13:12:59.615Z,0.02
2022-12-04T13:15:38.566Z,-0.01
2022-12-04T13:18:08.989Z,0.01
2022-12-04T13:20:46.534Z,-0.02
2022-12-04T13:23:21.113Z,0.06
2022-12-04T13:26:15.406Z,0.18
2022-12-04T13:28:54.783Z,0.40
2022-12-04T13:31:46.267Z,0.08
2022-12-04T13:34:35.020Z,0.03
2022-12-04T13:37:13.376Z,-0.06
2022-12-04T13:40:05.073Z,-0.03
2022-12-04T13:42:32.526Z,-0.07
2022-12-04T13:45:34.766Z,-0.11
2022-12-04T13:48:51.812Z,-0.15
2022-12-04T13:51:41.199Z,-0.19
2022-12-04T13:54:11.227Z,-0.18
2022-12-04T13:57:30.016Z,-0.26
2022-12-04T14:00:23.940Z,-0.21
2022-12-04T14:02:53.215Z,-0.23
2022-12-04T14:05:31.326Z,-0.28
2022-12-04T14:08:19.376Z,-0.30
2022-12-04T14:11:05.994Z,-0.34
2022-12-04T14:13:43.967Z,-0.34
2022-12-04T14:16:29.532Z,-0.35
2022-12-04T14:18:58.475Z,0.04
2022-12-04T14:21:54.300Z,-0.17
2022-12-04T14:31:40.217Z,-0.28
2022-12-04T14:39:44.757Z,-0.30
2022-12-04T14:41:05.648Z,-0.33
2022-12-04T14:43:38.542Z,-0.29
2022-12-04T14:46:13.864Z,-0.24
2022-12-04T14:48:55.804Z,-0.23
2022-12-04T14:51:33.376Z,-0.11
2022-12-04T14:54:12.988Z,0.22
2022-12-04T14:57:00.434Z,0.01
2022-12-04T14:59:49.698Z,0.03
2022-12-04T15:02:19.255Z,-0.08
2022-12-04T15:04:47.868Z,-0.12
2022-12-04T15:07:27.577Z,-0.13
2022-12-04T15:10:15.496Z,-0.13
2022-12-04T15:12:47.247Z,-0.05
2022-12-04T15:15:27.620Z,0.05
2022-12-04T15:18:09.751Z,0.08
2022-12-04T15:20:43.449Z,0.12
2022-12-04T15:23:18.188Z,0.30
2022-12-04T15:25:52.381Z,0.31
2022-12-04T15:28:42.937Z,0.24
2022-12-04T15:31:24.032Z,0.22
2022-12-04T15:33:53.657Z,0.14
2022-12-04T15:36:49.829Z,0.06
2022-12-04T15:39:27.284Z,0.09
2022-12-04T15:42:22.259Z,0.16
2022-12-04T15:45:03.080Z,0.23
2022-12-04T15:47:40.977Z,0.18
2022-12-04T15:50:13.470Z,0.19
2022-12-04T15:52:50.139Z,0.20
2022-12-04T15:55:18.854Z,0.21
2022-12-04T15:57:51.837Z,0.25
2022-12-04T16:00:21.666Z,0.28
2022-12-04T16:02:48.723Z,0.22
2022-12-04T16:05:21.480Z,0.26
2022-12-04T16:07:59.853Z,0.26
2022-12-04T16:10:33.144Z,0.28
2022-12-04T16:13:05.032Z,0.27
2022-12-04T16:15:38.969Z,0.21
2022-12-04T16:18:06.714Z,0.24
2022-12-04T16:20:37.852Z,0.22
2022-12-04T16:23:04.990Z,0.31
2022-12-04T16:25:32.087Z,0.28
2022-12-04T16:27:59.744Z,0.35
2022-12-04T16:30:27.719Z,0.37
2022-12-04T16:32:54.448Z,0.34
2022-12-04T16:35:21.266Z,0.27
2022-12-04T16:37:48.037Z,0.28
2022-12-04T16:40:15.470Z,0.27
2022-12-04T16:42:42.694Z,0.24
2022-12-04T16:45:25.240Z,0.30
2022-12-04T16:47:52.906Z,0.35
2022-12-04T16:50:19.640Z,0.32
2022-12-04T16:52:46.331Z,0.37
2022-12-04T16:55:23.328Z,0.62
2022-12-04T16:57:50.123Z,0.52
2022-12-04T17:00:17.921Z,0.47
2022-12-04T17:02:45.421Z,0.50
2022-12-04T17:05:23.993Z,0.38
2022-12-04T17:07:50.735Z,0.40
2022-12-04T17:10:23.377Z,0.43
2022-12-04T17:12:53.479Z,0.41
2022-12-04T17:15:20.491Z,0.29
2022-12-04T17:17:47.402Z,0.32
2022-12-04T17:20:17.313Z,0.25
2022-12-04T17:22:44.275Z,0.20
2022-12-04T17:25:11.840Z,0.36
2022-12-04T17:27:38.792Z,0.22
2022-12-04T17:30:07.589Z,0.18
2022-12-04T17:32:37.618Z,0.23
2022-12-04T17:35:05.949Z,0.19
2022-12-04T17:37:33.709Z,0.16
2022-12-04T17:40:00.392Z,0.16
2022-12-04T17:42:27.537Z,0.25
2022-12-04T17:44:54.461Z,0.21
2022-12-04T17:47:21.325Z,0.20
2022-12-04T17:49:47.989Z,0.28
2022-12-04T17:52:14.768Z,0.23
2022-12-04T17:54:41.473Z,0.28
2022-12-04T17:57:08.403Z,0.31
2022-12-04T17:59:35.121Z,0.33
2022-12-04T18:02:01.859Z,0.25
2022-12-04T18:04:28.530Z,0.35
2022-12-04T18:06:56.525Z,0.33
2022-12-04T18:09:24.815Z,0.39
2022-12-04T18:11:51.936Z,0.33
2022-12-04T18:14:22.199Z,0.32
2022-12-04T18:16:53.354Z,0.28
2022-12-04T18:19:25.448Z,0.27
2022-12-04T18:21:52.602Z,0.25
2022-12-04T18:24:20.731Z,0.30
2022-12-04T18:26:49.553Z,0.38
2022-12-04T18:29:23.060Z,0.38
2022-12-04T18:31:51.172Z,0.37
2022-12-04T18:34:18.736Z,0.43
2022-12-04T18:36:45.683Z,0.38
2022-12-04T18:39:24.478Z,0.37
2022-12-04T18:41:53.913Z,0.39
2022-12-04T18:44:21.057Z,0.37
2022-12-04T18:46:48.471Z,0.36
2022-12-04T18:49:15.400Z,0.37
2022-12-04T18:51:48.863Z,0.41
2022-12-04T18:54:22.595Z,0.47
2022-12-04T18:56:49.923Z,0.51
2022-12-04T18:59:21.761Z,0.53
2022-12-04T19:01:50.401Z,0.56
2022-12-04T19:04:18.544Z,0.55
2022-12-04T19:06:48.671Z,0.47
2022-12-04T19:09:18.995Z,0.46
2022-12-04T19:11:46.191Z,0.46
2022-12-04T19:14:22.326Z,0.53
2022-12-04T19:16:50.939Z,0.57
2022-12-04T19:19:17.938Z,0.51
2022-12-04T19:21:44.642Z,0.60
2022-12-04T19:24:11.960Z,0.61
2022-12-04T19:26:39.010Z,0.58
2022-12-04T19:29:06.469Z,0.64
2022-12-04T19:31:35.729Z,0.60
2022-12-04T19:34:03.516Z,0.55
2022-12-04T19:36:31.644Z,0.57
2022-12-04T19:38:58.632Z,0.52
2022-12-04T19:41:28.128Z,0.55
2022-12-04T19:43:57.104Z,0.67
2022-12-04T19:46:27.278Z,0.75
2022-12-04T19:48:56.925Z,0.81
2022-12-04T19:51:24.170Z,0.94
2022-12-04T20:57:12.398Z,0.70
2022-12-04T21:00:19.361Z,0.77
2022-12-04T21:07:26.916Z,0.69
2022-12-04T21:10:57.263Z,0.72
2022-12-04T21:14:16.624Z,0.80
2022-12-04T21:17:06.524Z,0.78
2022-12-04T21:19:38.786Z,0.75
2022-12-04T21:22:53.901Z,0.73
2022-12-04T21:26:14.811Z,0.81
2022-12-04T21:33:37.247Z,0.77
2022-12-04T21:42:51.967Z,0.86
2022-12-04T21:45:28.985Z,0.90
2022-12-04T21:48:37.996Z,0.90
2022-12-04T21:51:55.129Z,0.93
2022-12-04T21:55:28.643Z,0.87
2022-12-04T21:58:08.719Z,0.86
2022-12-04T22:00:57.975Z,0.90
2022-12-04T22:04:16.578Z,0.83
2022-12-04T22:06:56.854Z,0.80
2022-12-04T22:09:26.405Z,0.79
2022-12-04T22:12:41.444Z,0.83
2022-12-04T22:15:16.832Z,0.90
2022-12-04T22:19:17.678Z,0.92
2022-12-04T22:22:04.018Z,0.90
2022-12-04T22:25:00.376Z,0.91
2022-12-04T22:27:49.553Z,0.96
2022-12-04T22:30:40.054Z,1.03
2022-12-04T22:33:10.061Z,1.01
2022-12-04T22:35:53.115Z,0.97
2022-12-04T22:38:22.652Z,0.98
2022-12-04T22:41:01.853Z,0.95
2022-12-04T22:43:57.264Z,0.93
2022-12-04T22:46:43.171Z,0.96
2022-12-04T22:49:59.831Z,0.96
2022-12-04T22:53:32.902Z,1.00
2022-12-04T22:57:18.132Z,0.98
2022-12-04T23:03:02.967Z,1.01
2022-12-04T23:06:26.316Z,1.00
2022-12-04T23:13:38.498Z,0.95
2022-12-04T23:16:09.787Z,0.98
2022-12-04T23:18:49.988Z,1.10
2022-12-04T23:22:11.575Z,1.07
2022-12-04T23:24:39.094Z,1.12
2022-12-04T23:27:17.434Z,1.11
2022-12-04T23:33:31.037Z,1.09
2022-12-04T23:36:36.433Z,1.02
2022-12-04T23:39:36.585Z,0.92
2022-12-04T23:46:31.528Z,1.01
2022-12-04T23:50:10.382Z,1.04
2022-12-04T23:56:16.120Z,1.10
2022-12-04T23:59:11.843Z,1.13
